sensor_id;sensor_type;location;lat;lon;timestamp;temperature;humidity
9881;DHT22;4979;51.014;6.678;2023-04-25T00:00:47;7.60;99.90
9881;DHT22;4979;51.014;6.678;2023-04-25T00:03:12;7.60;99.90
9881;DHT22;4979;51.014;6.678;2023-04-25T00:05:39;7.60;99.90
9881;DHT22;4979;51.014;6.678;2023-04-25T00:10:31;7.60;99.90
9881;DHT22;4979;51.014;6.678;2023-04-25T00:12:56;7.60;99.90
9881;DHT22;4979;51.014;6.678;2023-04-25T00:17:49;7.50;99.90
9881;DHT22;4979;51.014;6.678;2023-04-25T00:20:15;7.60;99.90
9881;DHT22;4979;51.014;6.678;2023-04-25T00:22:41;7.60;99.90
9881;DHT22;4979;51.014;6.678;2023-04-25T00:27:33;7.60;99.90
9881;DHT22;4979;51.014;6.678;2023-04-25T00:32:25;7.60;99.90
9881;DHT22;4979;51.014;6.678;2023-04-25T00:37:16;7.60;99.90
9881;DHT22;4979;51.014;6.678;2023-04-25T00:39:43;7.50;99.90
9881;DHT22;4979;51.014;6.678;2023-04-25T00:42:10;7.40;99.90
9881;DHT22;4979;51.014;6.678;2023-04-25T00:44:37;7.40;99.90
9881;DHT22;4979;51.014;6.678;2023-04-25T00:47:03;7.40;99.90
9881;DHT22;4979;51.014;6.678;2023-04-25T00:49:29;7.40;99.90
9881;DHT22;4979;51.014;6.678;2023-04-25T00:51:55;7.40;99.90
9881;DHT22;4979;51.014;6.678;2023-04-25T00:54:22;7.30;99.90
9881;DHT22;4979;51.014;6.678;2023-04-25T00:56:47;7.20;99.90
9881;DHT22;4979;51.014;6.678;2023-04-25T00:59:14;7.20;99.90
9881;DHT22;4979;51.014;6.678;2023-04-25T01:01:41;7.20;99.90
9881;DHT22;4979;51.014;6.678;2023-04-25T01:04:07;7.20;99.90
9881;DHT22;4979;51.014;6.678;2023-04-25T01:06:32;7.20;99.90
9881;DHT22;4979;51.014;6.678;2023-04-25T01:08:59;7.30;99.90
9881;DHT22;4979;51.014;6.678;2023-04-25T01:13:50;7.30;99.90
9881;DHT22;4979;51.014;6.678;2023-04-25T01:16:16;7.30;99.90
9881;DHT22;4979;51.014;6.678;2023-04-25T01:18:42;7.40;99.90
9881;DHT22;4979;51.014;6.678;2023-04-25T01:21:12;7.40;99.90
9881;DHT22;4979;51.014;6.678;2023-04-25T01:23:41;7.40;99.90
9881;DHT22;4979;51.014;6.678;2023-04-25T01:26:09;7.40;99.90
9881;DHT22;4979;51.014;6.678;2023-04-25T01:31:01;7.40;99.90
9881;DHT22;4979;51.014;6.678;2023-04-25T01:33:27;7.40;99.90
9881;DHT22;4979;51.014;6.678;2023-04-25T01:35:52;7.40;99.90
9881;DHT22;4979;51.014;6.678;2023-04-25T01:40:45;7.20;99.90
9881;DHT22;4979;51.014;6.678;2023-04-25T01:43:12;7.10;99.90
9881;DHT22;4979;51.014;6.678;2023-04-25T01:45:40;7.10;99.90
9881;DHT22;4979;51.014;6.678;2023-04-25T01:48:10;7.00;99.90
9881;DHT22;4979;51.014;6.678;2023-04-25T01:50:38;7.00;99.90
9881;DHT22;4979;51.014;6.678;2023-04-25T01:53:04;7.00;99.90
9881;DHT22;4979;51.014;6.678;2023-04-25T01:55:30;7.00;99.90
9881;DHT22;4979;51.014;6.678;2023-04-25T01:57:56;7.00;99.90
9881;DHT22;4979;51.014;6.678;2023-04-25T02:05:16;7.00;99.90
9881;DHT22;4979;51.014;6.678;2023-04-25T02:07:42;7.00;99.90
9881;DHT22;4979;51.014;6.678;2023-04-25T02:10:08;7.00;99.90
9881;DHT22;4979;51.014;6.678;2023-04-25T02:12:35;7.00;99.90
9881;DHT22;4979;51.014;6.678;2023-04-25T02:17:27;7.00;99.90
9881;DHT22;4979;51.014;6.678;2023-04-25T02:19:53;7.10;99.90
9881;DHT22;4979;51.014;6.678;2023-04-25T02:22:18;7.10;99.90
9881;DHT22;4979;51.014;6.678;2023-04-25T02:24:45;7.20;99.90
9881;DHT22;4979;51.014;6.678;2023-04-25T02:27:11;7.20;99.90
9881;DHT22;4979;51.014;6.678;2023-04-25T02:29:38;7.30;99.90
9881;DHT22;4979;51.014;6.678;2023-04-25T02:32:03;7.30;99.90
9881;DHT22;4979;51.014;6.678;2023-04-25T02:34:29;7.40;99.90
9881;DHT22;4979;51.014;6.678;2023-04-25T02:36:55;7.30;99.90
9881;DHT22;4979;51.014;6.678;2023-04-25T02:39:20;7.30;99.90
9881;DHT22;4979;51.014;6.678;2023-04-25T02:41:47;7.30;99.90
9881;DHT22;4979;51.014;6.678;2023-04-25T02:46:39;7.10;99.90
9881;DHT22;4979;51.014;6.678;2023-04-25T02:49:04;7.20;99.90
9881;DHT22;4979;51.014;6.678;2023-04-25T02:51:30;7.20;99.90
9881;DHT22;4979;51.014;6.678;2023-04-25T02:53:56;7.20;99.90
9881;DHT22;4979;51.014;6.678;2023-04-25T02:56:21;7.20;99.90
9881;DHT22;4979;51.014;6.678;2023-04-25T02:58:47;7.20;99.90
9881;DHT22;4979;51.014;6.678;2023-04-25T03:06:05;7.20;99.90
9881;DHT22;4979;51.014;6.678;2023-04-25T03:08:30;7.20;99.90
9881;DHT22;4979;51.014;6.678;2023-04-25T03:10:58;7.10;99.90
9881;DHT22;4979;51.014;6.678;2023-04-25T03:13:24;7.20;99.90
9881;DHT22;4979;51.014;6.678;2023-04-25T03:18:15;7.20;99.90
9881;DHT22;4979;51.014;6.678;2023-04-25T03:23:07;7.10;99.90
9881;DHT22;4979;51.014;6.678;2023-04-25T03:30:25;7.10;99.90
9881;DHT22;4979;51.014;6.678;2023-04-25T03:32:50;7.10;99.90
9881;DHT22;4979;51.014;6.678;2023-04-25T03:37:42;7.20;99.90
9881;DHT22;4979;51.014;6.678;2023-04-25T03:40:11;7.10;99.90
9881;DHT22;4979;51.014;6.678;2023-04-25T03:42:36;7.10;99.90
9881;DHT22;4979;51.014;6.678;2023-04-25T03:45:02;7.10;99.90
9881;DHT22;4979;51.014;6.678;2023-04-25T03:47:28;7.10;99.90
9881;DHT22;4979;51.014;6.678;2023-04-25T03:49:53;7.10;99.90
9881;DHT22;4979;51.014;6.678;2023-04-25T03:52:19;7.10;99.90
9881;DHT22;4979;51.014;6.678;2023-04-25T03:57:10;7.10;99.90
9881;DHT22;4979;51.014;6.678;2023-04-25T03:59:36;7.10;99.90
9881;DHT22;4979;51.014;6.678;2023-04-25T04:02:02;7.00;99.90
9881;DHT22;4979;51.014;6.678;2023-04-25T04:04:27;7.10;99.90
9881;DHT22;4979;51.014;6.678;2023-04-25T04:06:53;7.10;99.90
9881;DHT22;4979;51.014;6.678;2023-04-25T04:09:18;7.10;99.90
9881;DHT22;4979;51.014;6.678;2023-04-25T04:11:44;7.00;99.90
9881;DHT22;4979;51.014;6.678;2023-04-25T04:14:10;7.00;99.90
9881;DHT22;4979;51.014;6.678;2023-04-25T04:16:36;7.00;99.90
9881;DHT22;4979;51.014;6.678;2023-04-25T04:19:02;7.00;99.90
9881;DHT22;4979;51.014;6.678;2023-04-25T04:21:27;7.00;99.90
9881;DHT22;4979;51.014;6.678;2023-04-25T04:23:54;7.10;99.90
9881;DHT22;4979;51.014;6.678;2023-04-25T04:26:20;7.00;99.90
9881;DHT22;4979;51.014;6.678;2023-04-25T04:28:49;7.00;99.90
9881;DHT22;4979;51.014;6.678;2023-04-25T04:31:16;7.10;99.90
9881;DHT22;4979;51.014;6.678;2023-04-25T04:36:10;7.00;99.90
9881;DHT22;4979;51.014;6.678;2023-04-25T04:41:01;7.10;99.90
9881;DHT22;4979;51.014;6.678;2023-04-25T04:43:27;7.10;99.90
9881;DHT22;4979;51.014;6.678;2023-04-25T04:48:21;7.10;99.90
9881;DHT22;4979;51.014;6.678;2023-04-25T04:50:47;7.10;99.90
9881;DHT22;4979;51.014;6.678;2023-04-25T04:53:13;7.10;99.90
9881;DHT22;4979;51.014;6.678;2023-04-25T04:55:38;7.10;99.90
9881;DHT22;4979;51.014;6.678;2023-04-25T05:00:32;7.20;99.90
9881;DHT22;4979;51.014;6.678;2023-04-25T05:05:25;7.20;99.90
9881;DHT22;4979;51.014;6.678;2023-04-25T05:07:50;7.30;99.90
9881;DHT22;4979;51.014;6.678;2023-04-25T05:10:17;7.30;99.90
9881;DHT22;4979;51.014;6.678;2023-04-25T05:12:43;7.40;99.90
9881;DHT22;4979;51.014;6.678;2023-04-25T05:15:08;7.50;99.90
9881;DHT22;4979;51.014;6.678;2023-04-25T05:17:34;7.50;99.90
9881;DHT22;4979;51.014;6.678;2023-04-25T05:20:00;7.60;99.90
9881;DHT22;4979;51.014;6.678;2023-04-25T05:24:51;7.70;99.90
9881;DHT22;4979;51.014;6.678;2023-04-25T05:27:17;7.80;99.90
9881;DHT22;4979;51.014;6.678;2023-04-25T05:29:44;7.90;99.90
9881;DHT22;4979;51.014;6.678;2023-04-25T05:32:09;7.90;99.90
9881;DHT22;4979;51.014;6.678;2023-04-25T05:34:35;8.00;99.90
9881;DHT22;4979;51.014;6.678;2023-04-25T05:37:01;8.00;99.90
9881;DHT22;4979;51.014;6.678;2023-04-25T05:39:27;7.90;99.90
9881;DHT22;4979;51.014;6.678;2023-04-25T05:44:19;7.90;99.90
9881;DHT22;4979;51.014;6.678;2023-04-25T05:46:45;8.00;99.90
9881;DHT22;4979;51.014;6.678;2023-04-25T05:49:10;8.00;99.90
9881;DHT22;4979;51.014;6.678;2023-04-25T05:51:36;8.10;99.90
9881;DHT22;4979;51.014;6.678;2023-04-25T05:54:01;8.20;99.90
9881;DHT22;4979;51.014;6.678;2023-04-25T05:56:27;8.30;99.90
9881;DHT22;4979;51.014;6.678;2023-04-25T05:58:52;8.30;99.90
9881;DHT22;4979;51.014;6.678;2023-04-25T06:03:44;8.30;99.90
9881;DHT22;4979;51.014;6.678;2023-04-25T06:06:11;8.30;99.90
9881;DHT22;4979;51.014;6.678;2023-04-25T06:08:37;8.40;99.90
9881;DHT22;4979;51.014;6.678;2023-04-25T06:13:30;8.50;99.90
9881;DHT22;4979;51.014;6.678;2023-04-25T06:18:21;8.60;99.90
9881;DHT22;4979;51.014;6.678;2023-04-25T06:20:47;8.40;99.90
9881;DHT22;4979;51.014;6.678;2023-04-25T06:25:38;8.40;99.90
9881;DHT22;4979;51.014;6.678;2023-04-25T06:28:04;8.50;99.90
9881;DHT22;4979;51.014;6.678;2023-04-25T06:30:29;8.50;99.90
9881;DHT22;4979;51.014;6.678;2023-04-25T06:32:55;8.50;99.90
9881;DHT22;4979;51.014;6.678;2023-04-25T06:35:21;8.50;99.90
9881;DHT22;4979;51.014;6.678;2023-04-25T06:37:46;8.60;99.90
9881;DHT22;4979;51.014;6.678;2023-04-25T06:40:12;8.70;99.90
9881;DHT22;4979;51.014;6.678;2023-04-25T06:42:37;8.80;99.90
9881;DHT22;4979;51.014;6.678;2023-04-25T06:45:03;8.80;99.90
9881;DHT22;4979;51.014;6.678;2023-04-25T06:52:21;9.00;99.90
9881;DHT22;4979;51.014;6.678;2023-04-25T06:54:46;9.10;99.90
9881;DHT22;4979;51.014;6.678;2023-04-25T06:57:12;9.20;99.90
9881;DHT22;4979;51.014;6.678;2023-04-25T06:59:38;9.20;99.90
9881;DHT22;4979;51.014;6.678;2023-04-25T07:04:31;9.10;99.90
9881;DHT22;4979;51.014;6.678;2023-04-25T07:06:57;9.20;99.90
9881;DHT22;4979;51.014;6.678;2023-04-25T07:09:22;9.20;99.90
9881;DHT22;4979;51.014;6.678;2023-04-25T07:11:48;9.50;99.90
9881;DHT22;4979;51.014;6.678;2023-04-25T07:14:13;9.50;99.90
9881;DHT22;4979;51.014;6.678;2023-04-25T07:19:07;9.50;99.90
9881;DHT22;4979;51.014;6.678;2023-04-25T07:21:32;9.40;99.90
9881;DHT22;4979;51.014;6.678;2023-04-25T07:26:24;9.60;99.90
9881;DHT22;4979;51.014;6.678;2023-04-25T07:31:17;9.50;99.90
9881;DHT22;4979;51.014;6.678;2023-04-25T07:33:44;9.50;99.90
9881;DHT22;4979;51.014;6.678;2023-04-25T07:36:10;9.40;99.90
9881;DHT22;4979;51.014;6.678;2023-04-25T07:41:02;9.50;99.90
9881;DHT22;4979;51.014;6.678;2023-04-25T07:43:27;9.50;99.90
9881;DHT22;4979;51.014;6.678;2023-04-25T07:45:53;9.70;99.90
9881;DHT22;4979;51.014;6.678;2023-04-25T07:50:44;9.90;99.90
9881;DHT22;4979;51.014;6.678;2023-04-25T07:53:10;10.00;99.90
9881;DHT22;4979;51.014;6.678;2023-04-25T08:00:31;10.20;99.90
9881;DHT22;4979;51.014;6.678;2023-04-25T08:10:15;10.50;99.90
9881;DHT22;4979;51.014;6.678;2023-04-25T08:12:40;10.60;99.90
9881;DHT22;4979;51.014;6.678;2023-04-25T08:15:06;10.60;99.90
9881;DHT22;4979;51.014;6.678;2023-04-25T08:17:32;10.60;99.90
9881;DHT22;4979;51.014;6.678;2023-04-25T08:24:50;10.40;99.90
9881;DHT22;4979;51.014;6.678;2023-04-25T08:29:42;10.60;99.90
9881;DHT22;4979;51.014;6.678;2023-04-25T08:44:17;10.50;99.90
9881;DHT22;4979;51.014;6.678;2023-04-25T08:46:46;10.50;99.90
9881;DHT22;4979;51.014;6.678;2023-04-25T08:49:16;10.40;99.90
9881;DHT22;4979;51.014;6.678;2023-04-25T08:51:46;10.20;99.90
9881;DHT22;4979;51.014;6.678;2023-04-25T08:54:13;10.20;99.90
9881;DHT22;4979;51.014;6.678;2023-04-25T08:56:47;10.30;99.90
9881;DHT22;4979;51.014;6.678;2023-04-25T08:59:13;10.50;99.90
9881;DHT22;4979;51.014;6.678;2023-04-25T09:01:39;10.80;99.90
9881;DHT22;4979;51.014;6.678;2023-04-25T09:06:31;11.20;99.90
9881;DHT22;4979;51.014;6.678;2023-04-25T09:09:05;11.30;99.90
9881;DHT22;4979;51.014;6.678;2023-04-25T09:11:32;11.30;99.90
9881;DHT22;4979;51.014;6.678;2023-04-25T09:14:30;11.20;99.90
9881;DHT22;4979;51.014;6.678;2023-04-25T09:19:26;11.00;99.90
9881;DHT22;4979;51.014;6.678;2023-04-25T09:21:59;10.90;99.90
9881;DHT22;4979;51.014;6.678;2023-04-25T09:24:36;10.60;99.90
9881;DHT22;4979;51.014;6.678;2023-04-25T09:27:09;10.80;99.90
9881;DHT22;4979;51.014;6.678;2023-04-25T09:29:38;10.80;99.90
9881;DHT22;4979;51.014;6.678;2023-04-25T09:34:42;10.60;99.90
9881;DHT22;4979;51.014;6.678;2023-04-25T09:37:11;10.40;99.90
9881;DHT22;4979;51.014;6.678;2023-04-25T09:39:38;10.30;99.90
9881;DHT22;4979;51.014;6.678;2023-04-25T09:42:04;10.30;99.90
9881;DHT22;4979;51.014;6.678;2023-04-25T09:46:56;10.20;99.90
9881;DHT22;4979;51.014;6.678;2023-04-25T09:49:22;10.20;99.90
9881;DHT22;4979;51.014;6.678;2023-04-25T09:51:55;10.30;99.90
9881;DHT22;4979;51.014;6.678;2023-04-25T09:56:48;10.60;99.90
9881;DHT22;4979;51.014;6.678;2023-04-25T09:59:16;10.60;99.90
9881;DHT22;4979;51.014;6.678;2023-04-25T10:04:20;11.00;99.90
9881;DHT22;4979;51.014;6.678;2023-04-25T10:06:48;11.10;99.90
9881;DHT22;4979;51.014;6.678;2023-04-25T10:09:15;11.00;99.90
9881;DHT22;4979;51.014;6.678;2023-04-25T10:16:33;11.10;99.90
9881;DHT22;4979;51.014;6.678;2023-04-25T10:18:59;11.20;99.90
9881;DHT22;4979;51.014;6.678;2023-04-25T10:21:25;11.30;99.90
9881;DHT22;4979;51.014;6.678;2023-04-25T10:23:54;11.20;99.90
9881;DHT22;4979;51.014;6.678;2023-04-25T10:26:20;11.00;99.90
9881;DHT22;4979;51.014;6.678;2023-04-25T10:31:22;10.70;99.90
9881;DHT22;4979;51.014;6.678;2023-04-25T10:33:48;10.50;99.90
9881;DHT22;4979;51.014;6.678;2023-04-25T10:36:18;10.20;99.90
9881;DHT22;4979;51.014;6.678;2023-04-25T10:38:44;10.10;99.90
9881;DHT22;4979;51.014;6.678;2023-04-25T10:41:11;10.10;99.90
9881;DHT22;4979;51.014;6.678;2023-04-25T10:43:41;10.20;99.90
9881;DHT22;4979;51.014;6.678;2023-04-25T10:46:23;10.30;99.90
9881;DHT22;4979;51.014;6.678;2023-04-25T10:51:24;10.70;99.90
9881;DHT22;4979;51.014;6.678;2023-04-25T10:54:04;10.70;99.90
9881;DHT22;4979;51.014;6.678;2023-04-25T10:56:37;14.70;99.90
9881;DHT22;4979;51.014;6.678;2023-04-25T10:59:06;11.20;99.90
9881;DHT22;4979;51.014;6.678;2023-04-25T11:01:42;11.20;99.90
9881;DHT22;4979;51.014;6.678;2023-04-25T11:04:23;11.50;99.90
9881;DHT22;4979;51.014;6.678;2023-04-25T11:09:45;11.60;99.90
9881;DHT22;4979;51.014;6.678;2023-04-25T11:12:11;11.70;99.90
9881;DHT22;4979;51.014;6.678;2023-04-25T11:21:58;11.70;99.90
9881;DHT22;4979;51.014;6.678;2023-04-25T11:24:34;11.60;99.90
9881;DHT22;4979;51.014;6.678;2023-04-25T11:27:01;11.70;99.90
9881;DHT22;4979;51.014;6.678;2023-04-25T11:29:30;11.60;99.90
9881;DHT22;4979;51.014;6.678;2023-04-25T11:31:56;11.40;99.90
9881;DHT22;4979;51.014;6.678;2023-04-25T11:34:26;11.20;99.90
9881;DHT22;4979;51.014;6.678;2023-04-25T11:36:53;11.70;99.90
9881;DHT22;4979;51.014;6.678;2023-04-25T11:39:19;12.00;99.90
9881;DHT22;4979;51.014;6.678;2023-04-25T11:41:46;12.30;99.90
9881;DHT22;4979;51.014;6.678;2023-04-25T11:44:11;12.50;99.90
9881;DHT22;4979;51.014;6.678;2023-04-25T11:49:03;12.90;99.90
9881;DHT22;4979;51.014;6.678;2023-04-25T11:51:30;13.00;99.90
9881;DHT22;4979;51.014;6.678;2023-04-25T11:53:57;13.30;99.90
9881;DHT22;4979;51.014;6.678;2023-04-25T11:56:22;13.60;97.30
9881;DHT22;4979;51.014;6.678;2023-04-25T11:58:58;13.80;98.70
9881;DHT22;4979;51.014;6.678;2023-04-25T12:01:35;13.60;97.70
9881;DHT22;4979;51.014;6.678;2023-04-25T12:04:21;13.40;97.30
9881;DHT22;4979;51.014;6.678;2023-04-25T12:06:48;12.80;99.70
9881;DHT22;4979;51.014;6.678;2023-04-25T12:09:15;12.50;96.80
9881;DHT22;4979;51.014;6.678;2023-04-25T12:11:48;12.40;97.20
9881;DHT22;4979;51.014;6.678;2023-04-25T12:14:28;12.40;99.90
9881;DHT22;4979;51.014;6.678;2023-04-25T12:16:59;12.40;97.90
9881;DHT22;4979;51.014;6.678;2023-04-25T12:19:25;12.20;98.50
9881;DHT22;4979;51.014;6.678;2023-04-25T12:24:21;11.90;99.90
9881;DHT22;4979;51.014;6.678;2023-04-25T12:27:02;11.70;99.90
9881;DHT22;4979;51.014;6.678;2023-04-25T12:29:30;11.60;99.90
9881;DHT22;4979;51.014;6.678;2023-04-25T12:31:56;11.70;99.90
9881;DHT22;4979;51.014;6.678;2023-04-25T12:36:49;11.80;99.90
9881;DHT22;4979;51.014;6.678;2023-04-25T12:39:22;11.60;99.90
9881;DHT22;4979;51.014;6.678;2023-04-25T12:41:52;11.70;99.90
9881;DHT22;4979;51.014;6.678;2023-04-25T12:44:20;11.80;99.90
9881;DHT22;4979;51.014;6.678;2023-04-25T12:46:46;11.60;99.90
9881;DHT22;4979;51.014;6.678;2023-04-25T12:49:12;11.50;99.90
9881;DHT22;4979;51.014;6.678;2023-04-25T12:51:38;11.60;99.90
9881;DHT22;4979;51.014;6.678;2023-04-25T12:54:05;11.70;99.90
9881;DHT22;4979;51.014;6.678;2023-04-25T12:58:57;12.30;98.40
9881;DHT22;4979;51.014;6.678;2023-04-25T13:03:50;12.50;99.90
9881;DHT22;4979;51.014;6.678;2023-04-25T13:06:16;12.90;99.40
9881;DHT22;4979;51.014;6.678;2023-04-25T13:08:42;13.00;96.10
9881;DHT22;4979;51.014;6.678;2023-04-25T13:11:08;13.10;97.30
9881;DHT22;4979;51.014;6.678;2023-04-25T13:13:33;13.10;94.90
9881;DHT22;4979;51.014;6.678;2023-04-25T13:16:04;12.60;92.70
9881;DHT22;4979;51.014;6.678;2023-04-25T13:18:30;12.30;94.30
9881;DHT22;4979;51.014;6.678;2023-04-25T13:25:49;12.10;91.70
9881;DHT22;4979;51.014;6.678;2023-04-25T13:28:14;12.20;92.10
9881;DHT22;4979;51.014;6.678;2023-04-25T13:30:41;12.70;92.40
9881;DHT22;4979;51.014;6.678;2023-04-25T13:33:07;13.10;93.80
9881;DHT22;4979;51.014;6.678;2023-04-25T13:35:34;13.20;91.30
9881;DHT22;4979;51.014;6.678;2023-04-25T13:42:53;13.30;89.80
9881;DHT22;4979;51.014;6.678;2023-04-25T13:45:19;13.10;91.10
9881;DHT22;4979;51.014;6.678;2023-04-25T13:50:11;12.30;93.00
9881;DHT22;4979;51.014;6.678;2023-04-25T13:55:05;12.30;92.30
9881;DHT22;4979;51.014;6.678;2023-04-25T13:59:58;12.50;90.10
9881;DHT22;4979;51.014;6.678;2023-04-25T14:02:24;12.60;92.10
9881;DHT22;4979;51.014;6.678;2023-04-25T14:04:50;12.60;93.80
9881;DHT22;4979;51.014;6.678;2023-04-25T14:07:16;12.20;92.50
9881;DHT22;4979;51.014;6.678;2023-04-25T14:09:42;12.10;93.30
9881;DHT22;4979;51.014;6.678;2023-04-25T14:12:07;11.90;94.00
9881;DHT22;4979;51.014;6.678;2023-04-25T14:16:59;11.60;92.90
9881;DHT22;4979;51.014;6.678;2023-04-25T14:19:24;11.70;93.70
9881;DHT22;4979;51.014;6.678;2023-04-25T14:21:50;11.70;96.50
9881;DHT22;4979;51.014;6.678;2023-04-25T14:24:16;11.60;97.00
9881;DHT22;4979;51.014;6.678;2023-04-25T14:26:41;11.70;98.90
9881;DHT22;4979;51.014;6.678;2023-04-25T14:29:08;11.90;98.80
9881;DHT22;4979;51.014;6.678;2023-04-25T14:31:37;12.00;98.60
9881;DHT22;4979;51.014;6.678;2023-04-25T14:34:03;12.30;99.90
9881;DHT22;4979;51.014;6.678;2023-04-25T14:36:28;12.50;98.60
9881;DHT22;4979;51.014;6.678;2023-04-25T14:38:54;12.70;96.60
9881;DHT22;4979;51.014;6.678;2023-04-25T14:41:20;12.90;95.40
9881;DHT22;4979;51.014;6.678;2023-04-25T14:43:46;12.90;94.80
9881;DHT22;4979;51.014;6.678;2023-04-25T14:46:12;13.00;93.30
9881;DHT22;4979;51.014;6.678;2023-04-25T14:48:38;13.00;94.60
9881;DHT22;4979;51.014;6.678;2023-04-25T14:53:30;13.00;92.00
9881;DHT22;4979;51.014;6.678;2023-04-25T14:58:22;13.20;91.00
9881;DHT22;4979;51.014;6.678;2023-04-25T15:00:48;13.40;91.70
9881;DHT22;4979;51.014;6.678;2023-04-25T15:03:14;13.40;92.10
9881;DHT22;4979;51.014;6.678;2023-04-25T15:05:41;13.50;91.40
9881;DHT22;4979;51.014;6.678;2023-04-25T15:13:00;13.60;89.40
9881;DHT22;4979;51.014;6.678;2023-04-25T15:25:11;13.90;92.90
9881;DHT22;4979;51.014;6.678;2023-04-25T15:27:38;13.30;95.50
9881;DHT22;4979;51.014;6.678;2023-04-25T15:30:07;12.80;96.40
9881;DHT22;4979;51.014;6.678;2023-04-25T15:32:34;12.60;97.00
9881;DHT22;4979;51.014;6.678;2023-04-25T15:35:05;12.50;94.20
9881;DHT22;4979;51.014;6.678;2023-04-25T15:40:03;12.20;93.80
9881;DHT22;4979;51.014;6.678;2023-04-25T15:42:38;12.40;94.30
9881;DHT22;4979;51.014;6.678;2023-04-25T15:45:05;12.40;94.90
9881;DHT22;4979;51.014;6.678;2023-04-25T15:57:14;12.90;97.30
9881;DHT22;4979;51.014;6.678;2023-04-25T16:02:06;12.70;94.30
9881;DHT22;4979;51.014;6.678;2023-04-25T16:04:33;12.50;93.90
9881;DHT22;4979;51.014;6.678;2023-04-25T16:07:00;12.40;94.40
9881;DHT22;4979;51.014;6.678;2023-04-25T16:09:26;12.50;95.40
9881;DHT22;4979;51.014;6.678;2023-04-25T16:14:18;12.80;96.20
9881;DHT22;4979;51.014;6.678;2023-04-25T16:16:43;12.60;96.90
9881;DHT22;4979;51.014;6.678;2023-04-25T16:24:01;12.20;96.60
9881;DHT22;4979;51.014;6.678;2023-04-25T16:26:27;12.10;99.30
9881;DHT22;4979;51.014;6.678;2023-04-25T16:33:44;12.00;98.20
9881;DHT22;4979;51.014;6.678;2023-04-25T16:38:38;11.80;96.60
9881;DHT22;4979;51.014;6.678;2023-04-25T16:45:59;11.70;96.80
9881;DHT22;4979;51.014;6.678;2023-04-25T16:53:18;11.90;96.70
9881;DHT22;4979;51.014;6.678;2023-04-25T16:55:44;11.90;96.90
9881;DHT22;4979;51.014;6.678;2023-04-25T16:58:10;12.10;97.90
9881;DHT22;4979;51.014;6.678;2023-04-25T17:00:37;12.00;94.20
9881;DHT22;4979;51.014;6.678;2023-04-25T17:03:03;12.10;94.90
9881;DHT22;4979;51.014;6.678;2023-04-25T17:05:29;12.00;94.00
9881;DHT22;4979;51.014;6.678;2023-04-25T17:12:47;12.10;95.30
9881;DHT22;4979;51.014;6.678;2023-04-25T17:17:39;11.90;97.60
9881;DHT22;4979;51.014;6.678;2023-04-25T17:20:06;11.60;99.90
9881;DHT22;4979;51.014;6.678;2023-04-25T17:22:33;11.60;98.80
9881;DHT22;4979;51.014;6.678;2023-04-25T17:29:52;11.80;97.40
9881;DHT22;4979;51.014;6.678;2023-04-25T17:32:18;11.50;98.70
9881;DHT22;4979;51.014;6.678;2023-04-25T17:34:43;11.30;99.60
9881;DHT22;4979;51.014;6.678;2023-04-25T17:37:10;11.20;98.90
9881;DHT22;4979;51.014;6.678;2023-04-25T17:39:43;11.50;99.90
9881;DHT22;4979;51.014;6.678;2023-04-25T17:42:09;11.80;99.60
9881;DHT22;4979;51.014;6.678;2023-04-25T17:44:37;12.00;98.20
9881;DHT22;4979;51.014;6.678;2023-04-25T17:49:31;12.20;96.30
9881;DHT22;4979;51.014;6.678;2023-04-25T17:51:57;12.20;96.20
9881;DHT22;4979;51.014;6.678;2023-04-25T17:54:22;12.10;94.20
9881;DHT22;4979;51.014;6.678;2023-04-25T18:04:08;11.10;93.70
9881;DHT22;4979;51.014;6.678;2023-04-25T18:09:01;10.70;94.60
9881;DHT22;4979;51.014;6.678;2023-04-25T18:11:27;10.60;94.20
9881;DHT22;4979;51.014;6.678;2023-04-25T18:13:53;10.60;94.10
9881;DHT22;4979;51.014;6.678;2023-04-25T18:16:19;10.40;94.50
9881;DHT22;4979;51.014;6.678;2023-04-25T18:18:46;10.30;94.80
9881;DHT22;4979;51.014;6.678;2023-04-25T18:21:18;10.20;95.60
9881;DHT22;4979;51.014;6.678;2023-04-25T18:23:44;10.10;98.80
9881;DHT22;4979;51.014;6.678;2023-04-25T18:26:10;10.10;99.90
9881;DHT22;4979;51.014;6.678;2023-04-25T18:31:02;9.90;99.90
9881;DHT22;4979;51.014;6.678;2023-04-25T18:33:28;9.80;99.90
9881;DHT22;4979;51.014;6.678;2023-04-25T18:38:22;9.60;99.90
9881;DHT22;4979;51.014;6.678;2023-04-25T18:43:14;9.50;99.90
9881;DHT22;4979;51.014;6.678;2023-04-25T18:48:06;9.30;99.90
9881;DHT22;4979;51.014;6.678;2023-04-25T18:52:58;9.20;99.90
9881;DHT22;4979;51.014;6.678;2023-04-25T19:02:42;8.90;99.90
9881;DHT22;4979;51.014;6.678;2023-04-25T19:05:08;8.90;99.90
9881;DHT22;4979;51.014;6.678;2023-04-25T19:10:02;8.80;99.90
9881;DHT22;4979;51.014;6.678;2023-04-25T19:12:28;8.80;99.90
9881;DHT22;4979;51.014;6.678;2023-04-25T19:17:20;8.70;99.90
9881;DHT22;4979;51.014;6.678;2023-04-25T19:19:46;8.50;99.90
9881;DHT22;4979;51.014;6.678;2023-04-25T19:22:12;8.60;99.90
9881;DHT22;4979;51.014;6.678;2023-04-25T19:24:38;8.50;99.90
9881;DHT22;4979;51.014;6.678;2023-04-25T19:27:04;8.40;99.90
9881;DHT22;4979;51.014;6.678;2023-04-25T19:39:19;8.40;99.90
9881;DHT22;4979;51.014;6.678;2023-04-25T19:41:45;8.40;99.90
9881;DHT22;4979;51.014;6.678;2023-04-25T19:44:10;8.40;99.90
9881;DHT22;4979;51.014;6.678;2023-04-25T19:46:37;8.30;99.90
9881;DHT22;4979;51.014;6.678;2023-04-25T19:49:03;8.30;99.90
9881;DHT22;4979;51.014;6.678;2023-04-25T19:51:31;8.20;99.90
9881;DHT22;4979;51.014;6.678;2023-04-25T19:53:57;8.20;99.90
9881;DHT22;4979;51.014;6.678;2023-04-25T19:58:49;8.10;99.90
9881;DHT22;4979;51.014;6.678;2023-04-25T20:01:15;8.00;99.90
9881;DHT22;4979;51.014;6.678;2023-04-25T20:06:07;8.00;99.90
9881;DHT22;4979;51.014;6.678;2023-04-25T20:08:34;8.00;99.90
9881;DHT22;4979;51.014;6.678;2023-04-25T20:11:00;7.90;99.90
9881;DHT22;4979;51.014;6.678;2023-04-25T20:13:26;7.80;99.90
9881;DHT22;4979;51.014;6.678;2023-04-25T20:18:18;7.70;99.90
9881;DHT22;4979;51.014;6.678;2023-04-25T20:20:44;7.70;99.90
9881;DHT22;4979;51.014;6.678;2023-04-25T20:25:37;7.70;99.90
9881;DHT22;4979;51.014;6.678;2023-04-25T20:30:29;7.60;99.90
9881;DHT22;4979;51.014;6.678;2023-04-25T20:35:22;7.60;99.90
9881;DHT22;4979;51.014;6.678;2023-04-25T20:37:48;7.60;99.90
9881;DHT22;4979;51.014;6.678;2023-04-25T20:40:14;7.50;99.90
9881;DHT22;4979;51.014;6.678;2023-04-25T20:50:05;7.40;99.90
9881;DHT22;4979;51.014;6.678;2023-04-25T20:52:31;7.30;99.90
9881;DHT22;4979;51.014;6.678;2023-04-25T20:54:57;7.30;99.90
9881;DHT22;4979;51.014;6.678;2023-04-25T20:57:23;7.30;99.90
9881;DHT22;4979;51.014;6.678;2023-04-25T20:59:49;7.30;99.90
9881;DHT22;4979;51.014;6.678;2023-04-25T21:02:14;7.20;99.90
9881;DHT22;4979;51.014;6.678;2023-04-25T21:04:41;7.20;99.90
9881;DHT22;4979;51.014;6.678;2023-04-25T21:09:34;7.20;99.90
9881;DHT22;4979;51.014;6.678;2023-04-25T21:11:59;7.10;99.90
9881;DHT22;4979;51.014;6.678;2023-04-25T21:14:25;7.20;99.90
9881;DHT22;4979;51.014;6.678;2023-04-25T21:16:51;7.20;99.90
9881;DHT22;4979;51.014;6.678;2023-04-25T21:24:09;7.10;99.90
9881;DHT22;4979;51.014;6.678;2023-04-25T21:26:35;7.10;99.90
9881;DHT22;4979;51.014;6.678;2023-04-25T21:29:01;7.00;99.90
9881;DHT22;4979;51.014;6.678;2023-04-25T21:33:53;7.00;99.90
9881;DHT22;4979;51.014;6.678;2023-04-25T21:41:10;7.00;99.90
9881;DHT22;4979;51.014;6.678;2023-04-25T21:43:36;7.00;99.90
9881;DHT22;4979;51.014;6.678;2023-04-25T21:58:12;6.80;99.90
9881;DHT22;4979;51.014;6.678;2023-04-25T22:03:04;6.80;99.90
9881;DHT22;4979;51.014;6.678;2023-04-25T22:05:30;6.80;99.90
9881;DHT22;4979;51.014;6.678;2023-04-25T22:07:56;6.70;99.90